METAR Data
IDs: Format: Raw Decoded Include TAF

Data at: 2210 UTC 22 Sep 2020

KDLL 222155Z AUTO 22005KT 10SM CLR 24/15 A3007 RMK AO2 T02410146
KDLL 222135Z AUTO 22004KT 7SM CLR 24/14 A3007 RMK AO2 T02430144
KDLL 222115Z AUTO 23006KT 10SM CLR 25/15 A3007 RMK AO2 T02450146
KDLL 222055Z AUTO 20006KT 10SM CLR 25/15 A3008 RMK AO2 T02460146
KDLL 222035Z AUTO 22005KT 10SM CLR 25/14 A3008 RMK AO2 T02460141
KDLL 222015Z AUTO 19004KT 10SM CLR 25/14 A3009 RMK AO2 T02460144
KDLL 221955Z AUTO 20004KT 10SM CLR 25/14 A3009 RMK AO2 T02450142
KDLL 221935Z AUTO 21006KT 10SM CLR 24/14 A3010 RMK AO2 T02440141
KDLL 221915Z AUTO 25005KT 10SM CLR 25/14 A3010 RMK AO2 T02450144
KDLL 221855Z AUTO 19004KT 10SM CLR 24/14 A3011 RMK AO2 T02400141
KDLL 221835Z AUTO 24005KT 10SM CLR 24/14 A3012 RMK AO2 T02400141
KDLL 221815Z AUTO 21007KT 10SM CLR 24/14 A3012 RMK AO2 T02360141
KDLL 221755Z AUTO 22003KT 10SM CLR 23/14 A3013 RMK AO2 T02300138 10231 20140
KDLL 221735Z AUTO 26004KT 10SM CLR 23/14 A3014 RMK AO2 T02270136
KDLL 221715Z AUTO 27005KT 10SM CLR 22/13 A3014 RMK AO2 T02200133
KDLL 221655Z AUTO 28005KT 10SM CLR 22/13 A3015 RMK AO2 T02170131
KDLL 221635Z AUTO 26004KT 10SM CLR 21/13 A3016 RMK AO2 T02130128
KDLL 221615Z AUTO 26007KT 10SM CLR 21/13 A3016 RMK AO2 T02090128
KDLL 221555Z AUTO 25006KT 10SM CLR 20/13 A3017 RMK AO2 T02010125
KDLL 221535Z AUTO 26004KT 10SM CLR 20/12 A3017 RMK AO2 T02000124
KDLL 221515Z AUTO 23007KT 10SM CLR 19/12 A3017 RMK AO2 T01900121
KDLL 221455Z AUTO 25003KT 10SM CLR 18/12 A3017 RMK AO2 T01790116
KDLL 221435Z AUTO 23005KT 10SM CLR 17/11 A3017 RMK AO2 T01700113
KDLL 221415Z AUTO 23003KT 10SM CLR 17/11 A3018 RMK AO2 T01650111
KDLL 221355Z AUTO 22005KT 10SM CLR 16/11 A3017 RMK AO2 T01620110
KDLL 221335Z AUTO 22003KT 10SM CLR 15/11 A3017 RMK AO2 T01530105
KDLL 221315Z AUTO 24004KT 10SM CLR 15/11 A3017 RMK AO2 T01530105
KDLL 221255Z AUTO 23004KT 10SM CLR 14/11 A3017 RMK AO2 T01430105
KDLL 221235Z AUTO 23003KT 10SM CLR 14/10 A3018 RMK AO2 T01440101
KDLL 221215Z AUTO 23006KT 10SM CLR 15/10 A3017 RMK AO2 T01450101
KDLL 221155Z AUTO 24006KT 10SM CLR 15/10 A3017 RMK AO2 T01460101 10155 20132
KDLL 221135Z AUTO 26003KT 10SM CLR 15/10 A3017 RMK AO2 T01460101
KDLL 221115Z AUTO 23006KT 10SM SCT110 15/10 A3017 RMK AO2 T01450102
KDLL 221055Z AUTO 23006KT 10SM -RA SCT090 BKN120 15/10 A3017 RMK AO2 T01490100
KDLL 221035Z AUTO 21007KT 10SM OVC120 15/10 A3017 RMK AO2 T01500099
KDLL 221015Z AUTO 22005KT 10SM OVC110 15/10 A3017 RMK AO2 T01480099
KDLL 220955Z AUTO 22005KT 10SM BKN120 15/10 A3017 RMK AO2 T01450097
KDLL 220935Z AUTO 23004KT 10SM SCT120 14/10 A3018 RMK AO2 T01430096
KDLL 220915Z AUTO 21006KT 10SM SCT120 15/10 A3018 RMK AO2 T01450096
KDLL 220855Z AUTO 22006KT 10SM CLR 14/10 A3018 RMK AO2 T01420097
KDLL 220835Z AUTO 22006KT 10SM SCT120 15/10 A3019 RMK AO2 T01450098
KDLL 220815Z AUTO 20005KT 10SM SCT120 14/10 A3019 RMK AO2 T01410095
KDLL 220755Z AUTO 20005KT 10SM CLR 13/10 A3020 RMK AO2 LTG DSNT W T01340095
KDLL 220735Z AUTO 00000KT 10SM CLR 14/09 A3020 RMK AO2 T01350092
KDLL 220715Z AUTO 00000KT 10SM CLR 14/09 A3021 RMK AO2 T01350091
KDLL 220655Z AUTO 00000KT 10SM CLR 13/09 A3021 RMK AO2 T01340088
KDLL 220635Z AUTO 23003KT 10SM CLR 14/09 A3021 RMK AO2 T01440090
KDLL 220615Z AUTO 00000KT 10SM CLR 15/09 A3020 RMK AO2 T01510089
KDLL 220555Z AUTO 00000KT 10SM CLR 15/09 A3020 RMK AO2 LTG DSNT NW T01530090 10166 20132 402200085
KDLL 220535Z AUTO 00000KT 10SM CLR 16/09 A3020 RMK AO2 T01560086
KDLL 220515Z AUTO 00000KT 10SM CLR 16/09 A3020 RMK AO2 T01600085
KDLL 220455Z AUTO 21006KT 10SM CLR 17/09 A3021 RMK AO2 LTG DSNT NE T01650085
KDLL 220435Z AUTO 21006KT 10SM SCT120 16/09 A3020 RMK AO2 T01640085
KDLL 220415Z AUTO 20008KT 10SM SCT120 17/08 A3020 RMK AO2 LTG DSNT NW T01650084
KDLL 220355Z AUTO 21005KT 10SM SCT120 16/09 A3019 RMK AO2 LTG DSNT NE T01580087
KDLL 220335Z AUTO 18006KT 10SM SCT120 16/09 A3019 RMK AO2 T01610086
KDLL 220315Z AUTO 19007KT 10SM CLR 16/09 A3018 RMK AO2 T01600086
KDLL 220255Z AUTO 18005KT 10SM CLR 16/09 A3018 RMK AO2 T01560086
KDLL 220235Z AUTO 17006KT 10SM CLR 15/09 A3018 RMK AO2 T01470086
KDLL 220215Z AUTO 17004KT 10SM CLR 15/08 A3018 RMK AO2 T01500084
KDLL 220155Z AUTO 17006KT 10SM CLR 15/08 A3018 RMK AO2 T01530084
KDLL 220135Z AUTO 16006KT 10SM CLR 13/09 A3018 RMK AO2 T01330087
KDLL 220115Z AUTO 16005KT 10SM CLR 13/09 A3018 RMK AO2 T01340085
KDLL 220055Z AUTO 17003KT 10SM CLR 14/09 A3018 RMK AO2 T01390085
KDLL 220035Z AUTO 00000KT 10SM CLR 15/08 A3019 RMK AO2 T01500083
KDLL 220015Z AUTO 18003KT 10SM CLR 16/08 A3019 RMK AO2 T01560081
KDLL 212355Z AUTO 22004KT 10SM CLR 16/08 A3019 RMK AO2 T01610083 10220 20161
KDLL 212335Z AUTO 23005KT 10SM CLR 18/08 A3018 RMK AO2 T01760083
KDLL 212315Z AUTO 20006KT 10SM CLR 19/08 A3019 RMK AO2 T01870084
KDLL 212255Z AUTO 19007KT 10SM CLR 19/08 A3019 RMK AO2 LTG DSNT N T01940083
KDLL 212235Z AUTO 20006KT 10SM CLR 19/08 A3020 RMK AO2 LTG DSNT N T01910083
KDLL 212215Z AUTO 19008KT 10SM CLR 21/07 A3020 RMK AO2 T02060074
KDLL 212155Z AUTO 19007KT 10SM CLR 21/07 A3021 RMK AO2 T02100074
KDLL 212135Z AUTO 20007KT 10SM CLR 21/07 A3021 RMK AO2 LTG DSNT N T02080072
KDLL 212115Z AUTO 19008KT 10SM CLR 21/07 A3022 RMK AO2 LTG DSNT NW T02060074
KDLL 212055Z AUTO 19010KT 10SM CLR 22/07 A3022 RMK AO2 LTG DSNT NW T02170067
KDLL 212035Z AUTO 19011KT 10SM CLR 22/07 A3023 RMK AO2 LTG DSNT NW T02160072
KDLL 212015Z AUTO 19009KT 10SM CLR 22/07 A3024 RMK AO2 T02150069
KDLL 211955Z AUTO 18011KT 10SM CLR 22/07 A3024 RMK AO2 T02160068
KDLL 211935Z AUTO 21008KT 10SM CLR 21/06 A3024 RMK AO2 T02120063
KDLL 211915Z AUTO 21011KT 10SM CLR 21/07 A3025 RMK AO2 T02120069
KDLL 211855Z AUTO 19012KT 10SM CLR 21/07 A3026 RMK AO2 T02100069
KDLL 211835Z AUTO 19009G14KT 10SM CLR 21/07 A3027 RMK AO2 T02070066
KDLL 211815Z AUTO 20010G15KT 10SM CLR 20/07 A3028 RMK AO2 T02010065
KDLL 211755Z AUTO 21012KT 10SM CLR 20/07 A3029 RMK AO2 LTG DSNT W T01980066 10198 20085
KDLL 211735Z AUTO 20010KT 10SM CLR 19/06 A3029 RMK AO2 T01930064
KDLL 211715Z AUTO 20008KT 10SM CLR 19/07 A3030 RMK AO2 T01920067
KDLL 211655Z AUTO 20009KT 10SM CLR 19/06 A3031 RMK AO2 T01870064
KDLL 211635Z AUTO 19010KT 10SM CLR 18/06 A3031 RMK AO2 T01780063
KDLL 211615Z AUTO 21009KT 10SM CLR 17/06 A3031 RMK AO2 T01730063
KDLL 211555Z AUTO 21010KT 10SM CLR 17/06 A3032 RMK AO2 LTG DSNT W T01660062
KDLL 211535Z AUTO 21010KT 10SM CLR 16/06 A3032 RMK AO2 T01550056
KDLL 211515Z AUTO 20008KT 10SM CLR 15/05 A3032 RMK AO2 T01510054
KDLL 211455Z AUTO 20011KT 10SM CLR 15/05 A3033 RMK AO2 T01450045
KDLL 211435Z AUTO 19010KT 10SM CLR 14/04 A3032 RMK AO2 T01400040
KDLL 211415Z AUTO 20010G15KT 10SM CLR 14/04 A3032 RMK AO2 T01360037
KDLL 211355Z AUTO 20008G15KT 10SM CLR 13/04 A3033 RMK AO2 T01310036
KDLL 211335Z AUTO 20006KT 10SM CLR 12/04 A3033 RMK AO2 T01150041
KDLL 211315Z AUTO 18005KT 10SM CLR 11/04 A3033 RMK AO2 T01050044
KDLL 211255Z AUTO 18004KT 10SM CLR 10/04 A3033 RMK AO2 T00960042
KDLL 211235Z AUTO 18004KT 10SM CLR 09/04 A3033 RMK AO2 T00850039
KDLL 211215Z AUTO 20003KT 10SM CLR 09/03 A3033 RMK AO2 T00920031
KDLL 211155Z AUTO 19008KT 10SM CLR 10/03 A3032 RMK AO2 T01000030 10130 20087
KDLL 211135Z AUTO 18007KT 10SM CLR 09/03 A3030 RMK AO2 T00880032
KDLL 211115Z AUTO 18007KT 10SM CLR 09/03 A3031 RMK AO2 T00910032
KDLL 211055Z AUTO 18007KT 10SM CLR 10/03 A3032 RMK AO2 T00950031
KDLL 211035Z AUTO 18007KT 10SM CLR 10/03 A3032 RMK AO2 T01040030
KDLL 211015Z AUTO 19007KT 10SM CLR 11/03 A3031 RMK AO2 T01110028